Terminal Aerodrome Forecast
Issued by NWS Charleston, WV

Current Version | Previous Version | Graphics & Text | Print | Product List | Glossary On
Versions: 1 2 3 4 5 6 7 8 9 10 11 12 13 14 15 16 17 18 19 20 21 22 23 24 25 26 27
000
FTUS41 KRLX 270300 AAA
TAFEKN
TAF AMD
KEKN 270308Z 2703/2724 VRB03KT 2SM BR BKN004 OVC012
      TEMPO 2703/2705 -FZDZSN
     FM271400 29004KT 3SM BR OVC015
     FM271700 30008KT 5SM -SHSN OVC022=

USA.gov is the U.S. government's official web portal to all federal, state and local government web resources and services.